Impacts TAF Board
For situational awareness. Not to be used for flight planning purposes.
IDs:

KATL - Atlanta/Hartsfield I, GA, US

Issued at 2336 UTC 21 Sep 2021
Updated at 2354 UTC 21 Sep 2021
Potential Impact None Slight Moderate High
Time2352Z 22/00Z 22/01Z 22/02Z 22/03Z 22/04Z 22/05Z 22/06Z 22/07Z 22/08Z 22/09Z 22/10Z 22/11Z 22/12Z>>
Type OBS PRVL PRVL PRVL PRVL PRVL PRVL PRVL PRVL PRVL PRVL PRVL PRVL PRVL
VIS 10 >6 >6 >6 >6 >6 >6 >6 >6 4 4 4 4 4
CIG -- 120 120 120 8 8 8 8 8 4 4 4 4 4
Cover SCT BKN BKN BKN BKN BKN BKN BKN BKN BKN BKN BKN BKN BKN
FltCat VFR VFR VFR VFR IFR IFR IFR IFR IFR LIFR LIFR LIFR LIFR LIFR
WX -- VCSH VCSH VCSH -- -- -- -- -- BR VCSH BR VCSH BR VCSH BR VCSH BR VCSH
WDir 120 90 90 90 90 90 90 90 90 120 120 120 120 120
WSpd 7 6 6 6 5 5 5 5 5 4 4 4 4 4
WGst -- -- -- -- -- -- -- -- -- -- -- -- -- --
Raw TAF
KATL 212336Z 2200/2306 09006KT P6SM VCSH SCT025 BKN120
  FM220300 09005KT P6SM BKN008
  FM220800 12004KT 4SM BR VCSH BKN004
  FM221300 22005KT 6SM -SHRA BR BKN004
  TEMPO 2213/2217 3SM -TSRA SCT005 BKN012CB
  FM221700 32015G25KT P6SM SCT025 BKN050
  FM222000 32014G24KT P6SM SCT250
  FM230100 33012KT P6SM SKC


Raw METAR
KATL 212352Z 12007KT 10SM FEW020 FEW100 SCT200 24/21 A3004 RMK AO2 SLP162 CB DSNT SE W-NW 60003 T02440211 10294 20244 53005
KATL 212252Z 11006KT 10SM FEW020 SCT040 SCT100 BKN200 24/21 A3001 RMK AO2 RAE02 SLP154 CB DSNT SE SW P0000 T02440211
KATL 212233Z 08007KT 10SM FEW020TCU SCT030 SCT050 BKN200 24/22 A3002 RMK AO2 RAE02 TCU NW P0000 T02440217
KATL 212152Z 10010KT 10SM -RA SCT018CB BKN025TCU BKN045 BKN200 26/22 A3003 RMK AO2 RAB32 SLP159 CB E-SE MOV STNRY TCU OHD-ALQDS P0003 T02610222
KATL 212052Z 11006KT 10SM SCT026TCU BKN070 BKN110 BKN200 28/22 A3002 RMK AO2 LTG DSNT SE SLP155 CB DSNT SE TCU SE SW-W NW 60000 T02780217 56023

METAR Board
Radar Display
Forecast Discussion
For situational awareness. Not to be used for flight planning purposes.